createdAt,value
2017-09-09T00:00:26.982Z,0
2017-09-09T00:01:27.723Z,0
2017-09-09T00:02:28.524Z,0
2017-09-09T00:03:29.532Z,0
2017-09-09T00:04:30.285Z,0
2017-09-09T00:05:31.423Z,0
2017-09-09T00:06:32.232Z,0
2017-09-09T00:07:32.981Z,0
2017-09-09T00:08:34.037Z,0
2017-09-09T00:09:34.760Z,0
2017-09-09T00:10:35.492Z,0
2017-09-09T00:11:36.223Z,0
2017-09-09T00:12:36.950Z,0
2017-09-09T00:13:37.943Z,0
2017-09-09T00:14:38.681Z,0
2017-09-09T00:15:39.411Z,0
2017-09-09T00:16:40.160Z,0
2017-09-09T00:17:40.886Z,0
2017-09-09T00:18:42.029Z,0
2017-09-09T00:19:42.753Z,0
2017-09-09T00:20:43.542Z,0
2017-09-09T00:21:44.261Z,0
2017-09-09T00:22:45.004Z,0
2017-09-09T00:23:46.141Z,0
2017-09-09T00:24:46.891Z,0
2017-09-09T00:25:47.627Z,0
2017-09-09T00:26:48.371Z,0
2017-09-09T00:27:49.102Z,0
2017-09-09T00:28:49.909Z,0
2017-09-09T00:29:50.635Z,0
2017-09-09T00:30:51.431Z,0
2017-09-09T00:31:52.372Z,0
2017-09-09T00:32:53.169Z,0
2017-09-09T00:33:53.891Z,0
2017-09-09T00:34:54.615Z,0
2017-09-09T00:35:55.359Z,0
2017-09-09T00:36:56.446Z,0
2017-09-09T00:37:57.180Z,0
2017-09-09T00:38:57.916Z,0
2017-09-09T00:39:58.700Z,0
2017-09-09T00:40:59.441Z,0
2017-09-09T00:42:00.630Z,0
2017-09-09T00:43:01.370Z,0
2017-09-09T00:44:02.141Z,0
2017-09-09T00:45:02.871Z,0
2017-09-09T00:46:03.602Z,0
2017-09-09T00:47:04.675Z,0
2017-09-09T00:48:05.473Z,0
2017-09-09T00:49:06.281Z,0
2017-09-09T00:50:07.020Z,0
2017-09-09T00:51:07.761Z,0
2017-09-09T00:52:08.699Z,0
2017-09-09T00:53:09.426Z,0
2017-09-09T00:54:10.164Z,0
2017-09-09T00:55:10.942Z,0
2017-09-09T00:56:11.734Z,0
2017-09-09T00:57:12.661Z,0
2017-09-09T00:58:13.381Z,0
2017-09-09T00:59:14.109Z,0
2017-09-09T01:00:14.847Z,0
2017-09-09T01:01:15.640Z,0
2017-09-09T01:02:16.371Z,0
2017-09-09T01:03:17.093Z,0
2017-09-09T01:04:17.821Z,0
2017-09-09T01:05:18.571Z,0
2017-09-09T01:06:19.306Z,0
2017-09-09T01:07:20.393Z,0
2017-09-09T01:08:21.132Z,0
2017-09-09T01:09:21.910Z,0
2017-09-09T01:10:22.656Z,0
2017-09-09T01:11:23.440Z,0
2017-09-09T01:12:24.531Z,0
2017-09-09T01:13:25.265Z,0
2017-09-09T01:14:26.056Z,0
2017-09-09T01:15:26.802Z,0
2017-09-09T01:16:27.620Z,0
2017-09-09T01:17:28.761Z,0
2017-09-09T01:18:29.481Z,0
2017-09-09T01:19:30.212Z,0
2017-09-09T01:20:31.028Z,0
2017-09-09T01:21:31.757Z,0
2017-09-09T01:22:32.853Z,0
2017-09-09T01:23:33.571Z,0
2017-09-09T01:24:34.293Z,0
2017-09-09T01:25:35.021Z,0
2017-09-09T01:26:35.766Z,0
2017-09-09T01:27:36.553Z,0
2017-09-09T01:28:37.291Z,0
2017-09-09T01:29:38.041Z,0
2017-09-09T01:30:39.071Z,0
2017-09-09T01:31:39.871Z,0
2017-09-09T01:32:40.594Z,0
2017-09-09T01:33:41.330Z,0
2017-09-09T01:34:42.056Z,0
2017-09-09T01:35:43.052Z,0
2017-09-09T01:36:43.776Z,0
2017-09-09T01:37:44.503Z,0
2017-09-09T01:38:45.226Z,0
2017-09-09T01:39:45.961Z,0
2017-09-09T01:40:46.991Z,0
2017-09-09T01:41:47.722Z,0
2017-09-09T01:42:48.511Z,0
2017-09-09T01:43:49.240Z,0
2017-09-09T01:44:49.976Z,0
2017-09-09T01:45:51.174Z,0
2017-09-09T01:46:51.971Z,0
2017-09-09T01:47:52.710Z,0
2017-09-09T01:48:53.436Z,0
2017-09-09T01:49:54.167Z,0
2017-09-09T01:50:55.376Z,0
2017-09-09T01:51:56.101Z,0
2017-09-09T01:52:56.841Z,0
2017-09-09T01:53:57.572Z,0
2017-09-09T01:54:58.300Z,0
2017-09-09T01:55:59.421Z,0
2017-09-09T01:57:00.142Z,0
2017-09-09T01:58:00.951Z,0
2017-09-09T01:59:01.682Z,0
2017-09-09T02:00:02.410Z,0
2017-09-09T02:01:03.504Z,0
2017-09-09T02:02:04.316Z,0
2017-09-09T02:03:05.240Z,0
2017-09-09T02:04:05.973Z,0
2017-09-09T02:05:06.812Z,0
2017-09-09T02:06:07.524Z,0
2017-09-09T02:07:08.245Z,0
2017-09-09T02:08:08.980Z,0
2017-09-09T02:09:10.130Z,0
2017-09-09T02:10:10.861Z,0
2017-09-09T02:11:11.591Z,0
2017-09-09T02:12:12.326Z,0
2017-09-09T02:13:13.114Z,0
2017-09-09T02:14:14.151Z,0
2017-09-09T02:15:14.889Z,0
2017-09-09T02:16:15.632Z,0
2017-09-09T02:17:16.431Z,0
2017-09-09T02:18:17.165Z,0
2017-09-09T02:19:18.301Z,0
2017-09-09T02:20:19.032Z,0
2017-09-09T02:21:19.838Z,0
2017-09-09T02:22:20.601Z,0
2017-09-09T02:23:21.331Z,0
2017-09-09T02:24:22.373Z,0
2017-09-09T02:25:23.182Z,0
2017-09-09T02:26:23.980Z,0
2017-09-09T02:27:24.716Z,0
2017-09-09T02:28:25.520Z,0
2017-09-09T02:29:26.651Z,0
2017-09-09T02:30:27.399Z,0
2017-09-09T02:31:28.163Z,0
2017-09-09T02:32:28.957Z,0
2017-09-09T02:33:29.680Z,0
2017-09-09T02:34:30.773Z,0
2017-09-09T02:35:31.566Z,0
2017-09-09T02:36:32.350Z,0
2017-09-09T02:37:33.080Z,0
2017-09-09T02:38:33.861Z,0
2017-09-09T02:39:35.070Z,0
2017-09-09T02:40:35.813Z,0
2017-09-09T02:41:36.571Z,0
2017-09-09T02:42:37.308Z,0
2017-09-09T02:43:38.112Z,0
2017-09-09T02:44:39.137Z,0
2017-09-09T02:45:39.858Z,0
2017-09-09T02:46:40.588Z,0
2017-09-09T02:47:41.410Z,0
2017-09-09T02:48:42.138Z,0
2017-09-09T02:49:43.218Z,0
2017-09-09T02:50:44.027Z,0
2017-09-09T02:51:44.828Z,0
2017-09-09T02:52:45.603Z,0
2017-09-09T02:53:46.328Z,0
2017-09-09T02:54:47.383Z,0
2017-09-09T02:55:48.193Z,0
2017-09-09T02:56:49.013Z,0
2017-09-09T02:57:49.748Z,0
2017-09-09T02:58:50.549Z,0
2017-09-09T02:59:51.627Z,0
2017-09-09T03:00:52.439Z,0
2017-09-09T03:01:53.232Z,0
2017-09-09T03:02:53.970Z,0
2017-09-09T03:03:54.697Z,0
2017-09-09T03:04:55.782Z,0
2017-09-09T03:05:56.511Z,0
2017-09-09T03:06:57.250Z,0
2017-09-09T03:07:57.982Z,0
2017-09-09T03:08:58.715Z,0
2017-09-09T03:09:59.910Z,0
2017-09-09T03:11:00.646Z,0
2017-09-09T03:12:01.375Z,0
2017-09-09T03:13:02.125Z,0
2017-09-09T03:14:02.851Z,0
2017-09-09T03:15:03.777Z,0
2017-09-09T03:16:04.521Z,0
2017-09-09T03:17:05.275Z,0
2017-09-09T03:18:06.036Z,0
2017-09-09T03:19:06.775Z,0
2017-09-09T03:20:07.855Z,0
2017-09-09T03:21:08.596Z,0
2017-09-09T03:22:09.399Z,0
2017-09-09T03:23:10.132Z,0
2017-09-09T03:24:10.853Z,0
2017-09-09T03:25:11.957Z,0
2017-09-09T03:26:12.686Z,0
2017-09-09T03:27:13.415Z,0
2017-09-09T03:28:14.148Z,0
2017-09-09T03:29:14.968Z,0
2017-09-09T03:30:15.730Z,0
2017-09-09T03:31:16.869Z,0
2017-09-09T03:32:17.671Z,0
2017-09-09T03:33:18.440Z,0
2017-09-09T03:34:19.171Z,0
2017-09-09T03:35:19.923Z,0
2017-09-09T03:36:21.117Z,0
2017-09-09T03:37:21.921Z,0
2017-09-09T03:38:22.714Z,0
2017-09-09T03:39:23.446Z,0
2017-09-09T03:40:24.183Z,0
2017-09-09T03:41:25.224Z,0
2017-09-09T03:42:25.963Z,0
2017-09-09T03:43:26.682Z,0
2017-09-09T03:44:27.418Z,0
2017-09-09T03:45:28.213Z,0
2017-09-09T03:46:29.239Z,0
2017-09-09T03:47:30.019Z,0
2017-09-09T03:48:30.752Z,0
2017-09-09T03:49:31.471Z,0
2017-09-09T03:50:32.225Z,0
2017-09-09T03:51:33.314Z,0
2017-09-09T03:52:34.045Z,0
2017-09-09T03:53:34.840Z,0
2017-09-09T03:54:35.573Z,0
2017-09-09T03:55:36.721Z,0
2017-09-09T03:56:37.930Z,0
2017-09-09T03:57:39.831Z,0
2017-09-09T03:58:41.170Z,0
2017-09-09T03:59:41.867Z,0
2017-09-09T04:00:42.662Z,0
2017-09-09T04:01:43.658Z,0
2017-09-09T04:02:44.463Z,0
2017-09-09T04:03:45.195Z,0
2017-09-09T04:04:45.999Z,0
2017-09-09T04:05:46.743Z,0
2017-09-09T04:06:47.745Z,0
2017-09-09T04:07:48.560Z,0
2017-09-09T04:08:49.299Z,0
2017-09-09T04:09:50.078Z,0
2017-09-09T04:10:50.812Z,0
2017-09-09T04:11:52.014Z,0
2017-09-09T04:12:52.739Z,0
2017-09-09T04:13:53.488Z,0
2017-09-09T04:14:54.255Z,0
2017-09-09T04:15:55.073Z,0
2017-09-09T04:16:56.133Z,0
2017-09-09T04:17:56.869Z,0
2017-09-09T04:18:57.605Z,0
2017-09-09T04:19:58.420Z,0
2017-09-09T04:20:59.195Z,0
2017-09-09T04:22:00.647Z,0
2017-09-09T04:23:01.431Z,0
2017-09-09T04:24:02.237Z,0
2017-09-09T04:25:02.987Z,0
2017-09-09T04:26:03.695Z,0
2017-09-09T04:27:04.437Z,4
2017-09-09T04:28:05.874Z,4
2017-09-09T04:29:06.618Z,4
2017-09-09T04:30:07.406Z,4
2017-09-09T04:31:08.129Z,4
2017-09-09T04:32:08.882Z,8
2017-09-09T04:33:09.964Z,8
2017-09-09T04:34:10.705Z,12
2017-09-09T04:35:11.520Z,12
2017-09-09T04:36:12.264Z,16
2017-09-09T04:37:12.986Z,20
2017-09-09T04:38:14.025Z,24
2017-09-09T04:39:14.801Z,24
2017-09-09T04:40:15.608Z,24
2017-09-09T04:41:16.340Z,24
2017-09-09T04:42:17.079Z,20
2017-09-09T04:43:18.013Z,20
2017-09-09T04:44:18.764Z,24
2017-09-09T04:45:19.569Z,24
2017-09-09T04:46:20.305Z,28
2017-09-09T04:47:21.050Z,32
2017-09-09T04:48:22.233Z,52
2017-09-09T04:49:22.976Z,64
2017-09-09T04:50:23.762Z,60
2017-09-09T04:51:24.490Z,52
2017-09-09T04:52:25.219Z,52
2017-09-09T04:53:25.962Z,64
2017-09-09T04:54:26.765Z,76
2017-09-09T04:55:27.569Z,84
2017-09-09T04:56:28.664Z,92
2017-09-09T04:57:29.413Z,96
2017-09-09T04:58:30.162Z,104
2017-09-09T04:59:30.909Z,112
2017-09-09T05:00:31.684Z,140
2017-09-09T05:01:32.717Z,152
2017-09-09T05:02:33.490Z,132
2017-09-09T05:03:34.224Z,112
2017-09-09T05:04:35.044Z,116
2017-09-09T05:05:35.786Z,128
2017-09-09T05:06:36.539Z,148
2017-09-09T05:07:37.282Z,172
2017-09-09T05:08:38.324Z,172
2017-09-09T05:09:39.119Z,176
2017-09-09T05:10:39.928Z,192
2017-09-09T05:11:40.713Z,200
2017-09-09T05:12:41.500Z,204
2017-09-09T05:13:42.442Z,200
2017-09-09T05:14:43.199Z,192
2017-09-09T05:15:43.944Z,188
2017-09-09T05:16:44.684Z,204
2017-09-09T05:17:45.418Z,228
2017-09-09T05:18:46.351Z,248
2017-09-09T05:19:47.177Z,264
2017-09-09T05:20:47.948Z,272
2017-09-09T05:21:48.734Z,284
2017-09-09T05:22:49.488Z,296
2017-09-09T05:23:50.754Z,288
2017-09-09T05:24:51.480Z,220
2017-09-09T05:25:52.199Z,216
2017-09-09T05:26:52.954Z,236
2017-09-09T05:27:53.682Z,280
2017-09-09T05:28:54.853Z,344
2017-09-09T05:29:55.636Z,420
2017-09-09T05:30:56.386Z,480
2017-09-09T05:31:57.183Z,556
2017-09-09T05:32:57.919Z,620
2017-09-09T05:33:59.092Z,616
2017-09-09T05:34:59.897Z,532
2017-09-09T05:36:00.638Z,476
2017-09-09T05:37:01.376Z,472
2017-09-09T05:38:02.182Z,492
2017-09-09T05:39:02.943Z,508
2017-09-09T05:40:03.695Z,536
2017-09-09T05:41:04.793Z,600
2017-09-09T05:42:05.618Z,692
2017-09-09T05:43:06.431Z,716
2017-09-09T05:44:07.175Z,700
2017-09-09T05:45:07.907Z,684
2017-09-09T05:46:08.659Z,704
2017-09-09T05:47:09.752Z,784
2017-09-09T05:48:10.469Z,908
2017-09-09T05:49:11.207Z,1072
2017-09-09T05:50:11.954Z,1208
2017-09-09T05:51:12.690Z,1360
2017-09-09T05:52:13.819Z,1412
2017-09-09T05:53:14.580Z,1440
2017-09-09T05:54:15.365Z,1404
2017-09-09T05:55:16.097Z,1408
2017-09-09T05:56:16.942Z,1456
2017-09-09T05:57:18.085Z,1524
2017-09-09T05:58:18.884Z,1580
2017-09-09T05:59:19.629Z,1528
2017-09-09T06:00:20.373Z,1444
2017-09-09T06:01:21.156Z,1364
2017-09-09T06:02:21.912Z,1424
2017-09-09T06:03:23.060Z,1612
2017-09-09T06:04:23.799Z,1812
2017-09-09T06:05:24.599Z,1884
2017-09-09T06:06:25.325Z,1820
2017-09-09T06:07:26.067Z,1724
2017-09-09T06:08:27.068Z,1768
2017-09-09T06:09:27.802Z,1900
2017-09-09T06:10:28.622Z,1972
2017-09-09T06:11:29.421Z,1912
2017-09-09T06:12:30.224Z,1624
2017-09-09T06:13:31.359Z,1284
2017-09-09T06:14:32.182Z,1252
2017-09-09T06:15:32.978Z,1340
2017-09-09T06:16:33.723Z,1480
2017-09-09T06:17:34.533Z,1652
2017-09-09T06:18:35.571Z,1712
2017-09-09T06:19:36.301Z,1688
2017-09-09T06:20:37.090Z,1624
2017-09-09T06:21:37.838Z,1620
2017-09-09T06:22:38.560Z,1756
2017-09-09T06:23:39.654Z,1924
2017-09-09T06:24:40.471Z,2016
2017-09-09T06:25:41.219Z,1904
2017-09-09T06:26:41.956Z,1940
2017-09-09T06:27:42.774Z,1968
2017-09-09T06:28:43.769Z,2008
2017-09-09T06:29:44.560Z,1916
2017-09-09T06:30:45.308Z,1924
2017-09-09T06:31:46.111Z,2144
2017-09-09T06:32:46.911Z,2288
2017-09-09T06:33:48.015Z,2380
2017-09-09T06:34:48.821Z,2372
2017-09-09T06:35:49.615Z,2436
2017-09-09T06:36:50.431Z,2724
2017-09-09T06:37:51.163Z,3012
2017-09-09T06:38:52.214Z,3380
2017-09-09T06:39:52.953Z,3476
2017-09-09T06:40:53.690Z,3828
2017-09-09T06:41:54.423Z,4612
2017-09-09T06:42:55.149Z,5180
2017-09-09T06:43:56.291Z,4824
2017-09-09T06:44:57.089Z,4224
2017-09-09T06:45:57.834Z,4444
2017-09-09T06:46:58.625Z,4700
2017-09-09T06:47:59.389Z,4600
2017-09-09T06:49:00.509Z,4284
2017-09-09T06:50:01.263Z,3804
2017-09-09T06:51:02.004Z,3396
2017-09-09T06:52:02.829Z,2912
2017-09-09T06:53:03.677Z,2432
2017-09-09T06:54:04.383Z,2148
2017-09-09T06:55:05.163Z,2160
2017-09-09T06:56:05.914Z,2480
2017-09-09T06:57:06.667Z,3092
2017-09-09T06:58:07.384Z,3380
2017-09-09T06:59:08.523Z,3376
2017-09-09T07:00:09.275Z,3196
2017-09-09T07:01:10.122Z,3140
2017-09-09T07:02:10.860Z,3244
2017-09-09T07:03:11.591Z,3120
2017-09-09T07:04:12.405Z,2660
2017-09-09T07:05:13.191Z,1964
2017-09-09T07:06:14.320Z,1480
2017-09-09T07:07:15.053Z,1192
2017-09-09T07:08:15.802Z,1160
2017-09-09T07:09:16.532Z,1256
2017-09-09T07:10:17.359Z,1608
2017-09-09T07:11:18.514Z,1672
2017-09-09T07:12:19.246Z,1268
2017-09-09T07:13:20.042Z,1248
2017-09-09T07:14:20.782Z,2176
2017-09-09T07:15:21.517Z,2280
2017-09-09T07:16:22.744Z,2076
2017-09-09T07:17:23.485Z,2632
2017-09-09T07:18:24.220Z,3036
2017-09-09T07:19:24.965Z,3072
2017-09-09T07:20:25.776Z,3016
2017-09-09T07:21:26.512Z,3068
2017-09-09T07:22:27.523Z,3148
2017-09-09T07:23:28.321Z,3056
2017-09-09T07:24:29.119Z,2980
2017-09-09T07:25:29.859Z,2616
2017-09-09T07:26:30.604Z,2380
2017-09-09T07:27:31.427Z,2440
2017-09-09T07:28:32.414Z,2752
2017-09-09T07:29:33.155Z,3508
2017-09-09T07:30:33.949Z,4768
2017-09-09T07:31:34.722Z,6132
2017-09-09T07:32:36.496Z,7032
2017-09-09T07:33:37.512Z,7056
2017-09-09T07:34:38.247Z,6972
2017-09-09T07:35:39.064Z,7004
2017-09-09T07:36:39.802Z,6864
2017-09-09T07:37:40.604Z,7052
2017-09-09T07:38:41.739Z,7840
2017-09-09T07:39:42.474Z,8588
2017-09-09T07:40:43.279Z,9196
2017-09-09T07:41:44.010Z,8700
2017-09-09T07:42:44.744Z,8684
2017-09-09T07:43:45.860Z,8520
2017-09-09T07:44:46.678Z,8812
2017-09-09T07:45:47.471Z,9016
2017-09-09T07:46:48.218Z,8752
2017-09-09T07:47:49.028Z,8344
2017-09-09T07:48:50.180Z,8000
2017-09-09T07:49:50.925Z,7044
2017-09-09T07:50:51.709Z,7148
2017-09-09T07:51:52.450Z,9312
2017-09-09T07:52:53.197Z,10496
2017-09-09T07:53:53.993Z,10840
2017-09-09T07:54:54.742Z,11436
2017-09-09T07:55:55.516Z,13132
2017-09-09T07:56:56.294Z,13760
2017-09-09T07:57:57.024Z,13032
2017-09-09T07:58:58.144Z,11636
2017-09-09T07:59:58.878Z,11276
2017-09-09T08:00:59.629Z,10064
2017-09-09T08:02:00.350Z,8416
2017-09-09T08:03:01.142Z,7440
2017-09-09T08:04:02.248Z,6680
2017-09-09T08:05:03.013Z,6596
2017-09-09T08:06:03.738Z,6972
2017-09-09T08:07:04.478Z,6684
2017-09-09T08:08:05.224Z,6072
2017-09-09T08:09:06.316Z,6248
2017-09-09T08:10:07.056Z,6076
2017-09-09T08:11:07.821Z,5552
2017-09-09T08:12:08.636Z,5372
2017-09-09T08:13:09.404Z,5832
2017-09-09T08:14:10.549Z,6360
2017-09-09T08:15:11.286Z,6780
2017-09-09T08:16:12.022Z,6904
2017-09-09T08:17:12.767Z,7984
2017-09-09T08:18:13.571Z,9768
2017-09-09T08:19:14.621Z,11420
2017-09-09T08:20:15.389Z,10852
2017-09-09T08:21:16.132Z,9440
2017-09-09T08:22:16.864Z,8580
2017-09-09T08:23:17.683Z,9040
2017-09-09T08:24:18.802Z,9164
2017-09-09T08:25:19.543Z,9160
2017-09-09T08:26:20.346Z,7416
2017-09-09T08:27:21.145Z,5588
2017-09-09T08:28:21.959Z,4016
2017-09-09T08:29:22.754Z,4036
2017-09-09T08:30:23.500Z,5912
2017-09-09T08:31:24.289Z,11768
2017-09-09T08:32:25.334Z,17156
2017-09-09T08:33:26.150Z,15940
2017-09-09T08:34:26.972Z,13684
2017-09-09T08:35:27.761Z,14708
2017-09-09T08:36:28.500Z,14568
2017-09-09T08:37:29.507Z,12580
2017-09-09T08:38:30.272Z,11136
2017-09-09T08:39:31.018Z,11756
2017-09-09T08:40:31.823Z,12168
2017-09-09T08:41:32.647Z,13652
2017-09-09T08:42:33.683Z,13924
2017-09-09T08:43:34.422Z,11252
2017-09-09T08:44:35.174Z,11000
2017-09-09T08:45:35.984Z,12500
2017-09-09T08:46:36.750Z,12856
2017-09-09T08:47:37.953Z,11684
2017-09-09T08:48:38.692Z,9788
2017-09-09T08:49:39.415Z,9532
2017-09-09T08:50:40.162Z,11828
2017-09-09T08:51:40.989Z,11540
2017-09-09T08:52:42.074Z,13064
2017-09-09T08:53:42.883Z,16632
2017-09-09T08:54:43.700Z,18816
2017-09-09T08:55:44.434Z,18752
2017-09-09T08:56:45.175Z,19584
2017-09-09T08:57:45.981Z,18368
2017-09-09T08:58:46.791Z,15848
2017-09-09T08:59:47.592Z,15520
2017-09-09T09:00:48.333Z,18208
2017-09-09T09:01:49.077Z,21760
2017-09-09T09:02:50.289Z,21888
2017-09-09T09:03:51.082Z,19616
2017-09-09T09:04:51.890Z,18880
2017-09-09T09:05:52.690Z,21152
2017-09-09T09:06:53.425Z,21952
2017-09-09T09:07:54.426Z,21984
2017-09-09T09:08:55.226Z,22048
2017-09-09T09:09:55.981Z,21568
2017-09-09T09:10:56.739Z,20288
2017-09-09T09:11:57.468Z,20352
2017-09-09T09:12:58.519Z,19776
2017-09-09T09:13:59.257Z,17808
2017-09-09T09:15:00.005Z,13068
2017-09-09T09:16:00.825Z,12408
2017-09-09T09:17:01.622Z,11144
2017-09-09T09:18:02.805Z,9840
2017-09-09T09:19:03.614Z,10184
2017-09-09T09:20:04.348Z,10652
2017-09-09T09:21:05.083Z,18048
2017-09-09T09:22:05.812Z,18176
2017-09-09T09:23:06.860Z,15600
2017-09-09T09:24:07.678Z,17604
2017-09-09T09:25:08.463Z,19200
2017-09-09T09:26:09.194Z,16708
2017-09-09T09:27:09.974Z,17244
2017-09-09T09:28:11.037Z,14788
2017-09-09T09:29:11.820Z,15916
2017-09-09T09:30:12.632Z,16044
2017-09-09T09:31:13.377Z,28480
2017-09-09T09:32:14.194Z,33728
2017-09-09T09:33:15.333Z,30816
2017-09-09T09:34:16.119Z,30848
2017-09-09T09:35:16.949Z,51776
2017-09-09T09:36:17.774Z,33952
2017-09-09T09:37:18.585Z,30176
2017-09-09T09:38:19.602Z,28864
2017-09-09T09:39:20.342Z,26848
2017-09-09T09:40:21.086Z,28416
2017-09-09T09:41:21.879Z,26816
2017-09-09T09:42:22.695Z,23968
2017-09-09T09:43:23.844Z,33280
2017-09-09T09:44:24.584Z,28256
2017-09-09T09:45:25.399Z,43296
2017-09-09T09:46:26.133Z,40192
2017-09-09T09:47:26.863Z,31968
2017-09-09T09:48:27.962Z,21472
2017-09-09T09:49:28.746Z,23648
2017-09-09T09:50:29.489Z,16864
2017-09-09T09:51:30.232Z,16400
2017-09-09T09:52:31.034Z,16552
2017-09-09T09:53:31.789Z,22784
2017-09-09T09:54:32.583Z,19424
2017-09-09T09:55:33.319Z,20768
2017-09-09T09:56:34.059Z,30752
2017-09-09T09:57:34.996Z,74208
2017-09-09T09:58:35.745Z,18432
2017-09-09T09:59:36.529Z,17792
2017-09-09T10:00:37.264Z,14432
2017-09-09T10:01:38.014Z,14752
2017-09-09T10:02:39.158Z,26144
2017-09-09T10:03:39.959Z,58048
2017-09-09T10:04:40.698Z,93536
2017-09-09T10:05:41.429Z,66112
2017-09-09T10:06:42.164Z,85504
2017-09-09T10:07:42.904Z,79808
2017-09-09T10:08:43.732Z,77760
2017-09-09T10:09:44.940Z,76576
2017-09-09T10:10:45.679Z,69632
2017-09-09T10:11:46.428Z,37024
2017-09-09T10:12:47.164Z,46464
2017-09-09T10:13:47.940Z,36096
2017-09-09T10:14:49.003Z,24640
2017-09-09T10:15:49.796Z,65440
2017-09-09T10:16:50.537Z,38592
2017-09-09T10:17:51.309Z,40224
2017-09-09T10:18:52.053Z,28256
2017-09-09T10:19:53.020Z,28576
2017-09-09T10:20:53.749Z,37376
2017-09-09T10:21:54.492Z,27552
2017-09-09T10:22:55.242Z,84256
2017-09-09T10:23:55.997Z,83136
2017-09-09T10:24:57.050Z,64352
2017-09-09T10:25:57.862Z,27648
2017-09-09T10:26:58.605Z,30912
2017-09-09T10:27:59.398Z,29824
2017-09-09T10:29:00.148Z,61824
2017-09-09T10:30:00.915Z,24576
2017-09-09T10:31:01.741Z,31392
2017-09-09T10:32:02.520Z,30848
2017-09-09T10:33:03.622Z,27168
2017-09-09T10:34:04.416Z,15800
2017-09-09T10:35:05.233Z,14552
2017-09-09T10:36:05.985Z,10152
2017-09-09T10:37:06.801Z,6812
2017-09-09T10:38:07.862Z,5008
2017-09-09T10:39:08.603Z,7492
2017-09-09T10:40:09.359Z,7392
2017-09-09T10:41:10.186Z,10428
2017-09-09T10:42:10.910Z,8576
2017-09-09T10:43:11.905Z,5896
2017-09-09T10:44:12.651Z,9932
2017-09-09T10:45:13.397Z,15972
2017-09-09T10:46:14.209Z,11932
2017-09-09T10:47:15.010Z,13820
2017-09-09T10:48:16.088Z,10552
2017-09-09T10:49:16.833Z,12356
2017-09-09T10:50:17.577Z,10552
2017-09-09T10:51:18.389Z,6520
2017-09-09T10:52:19.139Z,5104
2017-09-09T10:53:20.183Z,5668
2017-09-09T10:54:20.918Z,7304
2017-09-09T10:55:21.668Z,7508
2017-09-09T10:56:22.461Z,9908
2017-09-09T10:57:23.283Z,6396
2017-09-09T10:58:24.382Z,12740
2017-09-09T10:59:25.133Z,19424
2017-09-09T11:00:25.872Z,32320
2017-09-09T11:01:26.673Z,36608
2017-09-09T11:02:27.405Z,33600
2017-09-09T11:03:28.432Z,25472
2017-09-09T11:04:29.238Z,18912
2017-09-09T11:05:29.972Z,15964
2017-09-09T11:06:30.779Z,15208
2017-09-09T11:07:31.533Z,14956
2017-09-09T11:08:32.754Z,14884
2017-09-09T11:09:33.488Z,15176
2017-09-09T11:10:34.222Z,23328
2017-09-09T11:11:34.964Z,32672
2017-09-09T11:12:35.694Z,30112
2017-09-09T11:13:36.847Z,28288
2017-09-09T11:14:37.614Z,22752
2017-09-09T11:15:38.349Z,24192
2017-09-09T11:16:39.103Z,23392
2017-09-09T11:17:39.902Z,22720
2017-09-09T11:18:40.929Z,19712
2017-09-09T11:19:41.677Z,17792
2017-09-09T11:20:42.450Z,20832
2017-09-09T11:21:43.191Z,20320
2017-09-09T11:22:44.011Z,17016
2017-09-09T11:23:45.063Z,18432
2017-09-09T11:24:45.862Z,24736
2017-09-09T11:25:46.612Z,16748
2017-09-09T11:26:47.423Z,27968
2017-09-09T11:27:48.201Z,31264
2017-09-09T11:28:49.246Z,29280
2017-09-09T11:29:50.047Z,37760
2017-09-09T11:30:50.860Z,31744
2017-09-09T11:31:51.654Z,38656
2017-09-09T11:32:52.379Z,31584
2017-09-09T11:33:53.359Z,32032
2017-09-09T11:34:54.103Z,38368
2017-09-09T11:35:54.836Z,40672
2017-09-09T11:36:55.591Z,31488
2017-09-09T11:37:56.408Z,28064
2017-09-09T11:38:57.184Z,39936
2017-09-09T11:39:57.924Z,46304
2017-09-09T11:40:58.665Z,35072
2017-09-09T11:41:59.470Z,28608
2017-09-09T11:43:00.554Z,26528
2017-09-09T11:44:01.380Z,19424
2017-09-09T11:45:02.137Z,18016
2017-09-09T11:46:02.983Z,18432
2017-09-09T11:47:03.679Z,22592
2017-09-09T11:48:04.525Z,23840
2017-09-09T11:49:05.337Z,21408
2017-09-09T11:50:06.070Z,13436
2017-09-09T11:51:06.811Z,15968
2017-09-09T11:52:07.588Z,25952
2017-09-09T11:53:08.786Z,25504
2017-09-09T11:54:09.604Z,16900
2017-09-09T11:55:10.405Z,14368
2017-09-09T11:56:11.225Z,18816
2017-09-09T11:57:12.023Z,21504
2017-09-09T11:58:12.972Z,14868
2017-09-09T11:59:13.760Z,18240
2017-09-09T12:00:14.509Z,20864
2017-09-09T12:01:15.249Z,19264
2017-09-09T12:02:15.991Z,14232
2017-09-09T12:03:16.891Z,11684
2017-09-09T12:04:17.804Z,13416
2017-09-09T12:05:18.597Z,13436
2017-09-09T12:06:19.370Z,13148
2017-09-09T12:07:21.013Z,17952
2017-09-09T12:08:22.363Z,19968
2017-09-09T12:09:23.245Z,18944
2017-09-09T12:10:24.001Z,18560
2017-09-09T12:11:24.895Z,19840
2017-09-09T12:12:25.642Z,18816
2017-09-09T12:13:26.803Z,18368
2017-09-09T12:14:27.618Z,19296
2017-09-09T12:15:28.355Z,19936
2017-09-09T12:16:29.728Z,21056
2017-09-09T12:17:30.418Z,22592
2017-09-09T12:18:31.626Z,20128
2017-09-09T12:19:32.420Z,17584
2017-09-09T12:20:33.255Z,78592
2017-09-09T12:21:34.066Z,13832
2017-09-09T12:22:34.911Z,16732
2017-09-09T12:23:35.683Z,22848
2017-09-09T12:24:36.471Z,56544
2017-09-09T12:25:37.572Z,48832
2017-09-09T12:26:38.375Z,93248
2017-09-09T12:27:39.185Z,43968
2017-09-09T12:28:40.033Z,89504
2017-09-09T12:29:40.774Z,47616
2017-09-09T12:30:41.976Z,75104
2017-09-09T12:31:42.779Z,61056
2017-09-09T12:32:43.523Z,43232
2017-09-09T12:33:44.252Z,38624
2017-09-09T12:34:44.993Z,41600
2017-09-09T12:35:46.044Z,37120
2017-09-09T12:36:46.791Z,35776
2017-09-09T12:37:47.574Z,39552
2017-09-09T12:38:48.304Z,29088
2017-09-09T12:39:49.049Z,27168
2017-09-09T12:40:50.208Z,62752
2017-09-09T12:41:50.929Z,89600
2017-09-09T12:42:51.670Z,87744
2017-09-09T12:43:52.415Z,88256
2017-09-09T12:44:53.220Z,92224
2017-09-09T12:45:54.320Z,83392
2017-09-09T12:46:55.217Z,62208
2017-09-09T12:47:55.975Z,35040
2017-09-09T12:48:56.783Z,32640
2017-09-09T12:49:57.525Z,26496
2017-09-09T12:50:58.553Z,23360
2017-09-09T12:51:59.292Z,21376
2017-09-09T12:53:00.038Z,24160
2017-09-09T12:54:00.768Z,23968
2017-09-09T12:55:01.519Z,23424
2017-09-09T12:56:02.748Z,23328
2017-09-09T12:57:03.533Z,23424
2017-09-09T12:58:04.274Z,23200
2017-09-09T12:59:05.033Z,21696
2017-09-09T13:00:05.776Z,19328
2017-09-09T13:01:06.878Z,17140
2017-09-09T13:02:07.631Z,15124
2017-09-09T13:03:08.364Z,15920
2017-09-09T13:04:09.108Z,14784
2017-09-09T13:05:09.951Z,12628
2017-09-09T13:06:11.089Z,12352
2017-09-09T13:07:11.815Z,12704
2017-09-09T13:08:12.554Z,10852
2017-09-09T13:09:13.378Z,9780
2017-09-09T13:10:14.184Z,11928
2017-09-09T13:11:15.376Z,12192
2017-09-09T13:12:16.132Z,11452
2017-09-09T13:13:16.948Z,11752
2017-09-09T13:14:17.685Z,11012
2017-09-09T13:15:18.433Z,10456
2017-09-09T13:16:19.374Z,9892
2017-09-09T13:17:20.164Z,8908
2017-09-09T13:18:20.976Z,8568
2017-09-09T13:19:21.782Z,8268
2017-09-09T13:20:22.583Z,8340
2017-09-09T13:21:23.773Z,9128
2017-09-09T13:22:24.513Z,10244
2017-09-09T13:23:25.239Z,10972
2017-09-09T13:24:25.986Z,12636
2017-09-09T13:25:26.773Z,14012
2017-09-09T13:26:27.817Z,15196
2017-09-09T13:27:28.550Z,17696
2017-09-09T13:28:29.292Z,22368
2017-09-09T13:29:30.090Z,25824
2017-09-09T13:30:30.877Z,20832
2017-09-09T13:31:32.023Z,15884
2017-09-09T13:32:32.772Z,18704
2017-09-09T13:33:33.591Z,15404
2017-09-09T13:34:34.398Z,19904
2017-09-09T13:35:35.198Z,37120
2017-09-09T13:36:36.297Z,32288
2017-09-09T13:37:37.066Z,34880
2017-09-09T13:38:37.859Z,18660
2017-09-09T13:39:38.597Z,14572
2017-09-09T13:40:39.398Z,15116
2017-09-09T13:41:40.543Z,15916
2017-09-09T13:42:41.281Z,17508
2017-09-09T13:43:42.098Z,16388
2017-09-09T13:44:42.890Z,20032
2017-09-09T13:45:43.631Z,25984
2017-09-09T13:46:44.824Z,34880
2017-09-09T13:47:45.630Z,43424
2017-09-09T13:48:46.403Z,42016
2017-09-09T13:49:47.208Z,68288